Time;durP1;ratioP1;P1;durP2;ratioP2;P2;SDS_P1;SDS_P2;PMS_P1;PMS_P2;Temp;Humidity;BMP_temperature;BMP_pressure;BME280_temperature;BME280_humidity;BME280_pressure;Samples;Min_cycle;Max_cycle;Signal;HPM_P1;HPM_P2
2021/12/15 00:01:35;;;;;;;;;50.00;37.50;;;;;12.10;67.82;102843.97;4997692;28;45504;-73
2021/12/15 00:04:01;;;;;;;;;42.25;34.75;;;;;12.00;67.91;102822.44;4996911;28;47316;-72
2021/12/15 00:06:26;;;;;;;;;42.75;35.25;;;;;12.01;67.88;102818.94;4998292;28;45277;-73
2021/12/15 00:08:53;;;;;;;;;42.25;33.50;;;;;12.07;68.03;102827.09;4998366;28;45940;-73
2021/12/15 00:11:19;;;;;;;;;41.50;35.00;;;;;12.09;67.87;102831.53;4998205;28;45472;-73
2021/12/15 00:13:45;;;;;;;;;46.25;35.75;;;;;11.98;68.06;102809.97;4997783;28;46097;-72
2021/12/15 00:16:10;;;;;;;;;46.50;35.75;;;;;12.05;68.37;102827.91;4998208;28;45306;-73
2021/12/15 00:18:36;;;;;;;;;44.75;37.25;;;;;12.07;67.92;102831.50;5013427;28;45362;-73
2021/12/15 00:21:03;;;;;;;;;47.25;34.00;;;;;12.07;67.87;102829.75;4998406;28;45425;-73
2021/12/15 00:23:28;;;;;;;;;46.25;36.50;;;;;12.00;68.02;102814.47;4993690;28;46659;-73
2021/12/15 00:25:54;;;;;;;;;48.50;37.75;;;;;12.07;67.63;102824.44;4994145;28;45356;-73
2021/12/15 00:28:19;;;;;;;;;42.75;32.50;;;;;12.05;68.03;102820.84;4998158;28;45375;-73
2021/12/15 00:30:44;;;;;;;;;36.75;29.00;;;;;11.97;67.75;102806.41;4997925;28;45657;-72
2021/12/15 00:33:10;;;;;;;;;39.00;31.00;;;;;12.06;67.65;102829.69;4997617;28;47426;-73
2021/12/15 00:35:36;;;;;;;;;46.00;33.00;;;;;12.04;67.73;102820.81;4997874;28;45373;-72
2021/12/15 00:38:02;;;;;;;;;40.50;34.50;;;;;12.05;67.85;102826.16;4997815;28;45251;-73
2021/12/15 00:40:28;;;;;;;;;42.25;33.75;;;;;12.04;67.85;102827.00;4997298;28;45638;-73
2021/12/15 00:42:54;;;;;;;;;34.75;30.75;;;;;11.97;67.84;102810.81;4997159;28;46487;-73
2021/12/15 00:45:19;;;;;;;;;42.25;31.75;;;;;11.97;67.58;102803.75;4997260;28;45341;-73
2021/12/15 00:47:45;;;;;;;;;39.75;33.75;;;;;12.04;67.46;102813.75;4997352;28;46756;-73
2021/12/15 00:50:11;;;;;;;;;32.50;31.00;;;;;11.95;67.28;102796.63;4997859;28;45420;-72
2021/12/15 00:52:37;;;;;;;;;34.25;30.25;;;;;12.05;67.37;102814.66;4979545;28;47351;-73
2021/12/15 00:55:04;;;;;;;;;33.00;28.25;;;;;12.04;67.36;102816.41;4979770;28;45372;-72
2021/12/15 00:57:30;;;;;;;;;39.50;34.25;;;;;12.06;67.26;102820.00;5013156;28;45524;-73
2021/12/15 00:59:55;;;;;;;;;43.50;31.25;;;;;12.06;67.38;102827.94;4997863;28;45544;-73
2021/12/15 01:02:20;;;;;;;;;37.00;32.75;;;;;11.99;67.42;102809.13;5007879;28;47285;-73
2021/12/15 01:04:46;;;;;;;;;39.50;33.75;;;;;11.99;67.44;102810.03;4997578;28;45334;-73
2021/12/15 01:07:12;;;;;;;;;33.50;29.75;;;;;12.07;67.34;102823.53;4997465;28;45198;-73
2021/12/15 01:09:44;;;;;;;;;28.75;26.00;;;;;11.97;67.48;102811.72;4997913;28;45338;-73
2021/12/15 01:20:36;;;;;;;;;39.75;33.00;;;;;12.04;67.67;102812.88;4997854;28;45445;-73
2021/12/15 01:23:07;;;;;;;;;36.25;33.25;;;;;12.04;67.78;102820.81;4996837;28;45340;-72
2021/12/15 01:25:52;;;;;;;;;43.00;34.75;;;;;12.03;67.61;102817.22;4980493;28;45373;-72
2021/12/15 01:28:17;;;;;;;;;37.00;31.50;;;;;11.97;67.72;102802.88;4986049;28;45404;-73
2021/12/15 01:30:44;;;;;;;;;37.50;33.00;;;;;12.03;67.90;102814.56;4996904;28;45308;-73
2021/12/15 01:33:10;;;;;;;;;39.75;33.25;;;;;12.03;67.67;102817.22;4984889;28;48433;-72
2021/12/15 01:35:36;;;;;;;;;41.50;32.50;;;;;11.96;67.75;102803.72;4997211;28;45204;-72
2021/12/15 01:38:01;;;;;;;;;47.75;36.75;;;;;12.02;67.78;102817.19;4997294;28;45276;-73
2021/12/15 01:40:34;;;;;;;;;37.25;32.75;;;;;12.02;67.89;102818.06;4997071;28;45736;-73
2021/12/15 01:43:02;;;;;;;;;43.75;33.75;;;;;12.02;67.64;102815.44;4996737;28;46661;-73
2021/12/15 01:48:13;;;;;;;;;43.25;34.25;;;;;12.02;67.89;102811.88;4997318;28;45488;-73
2021/12/15 01:50:39;;;;;;;;;38.75;32.50;;;;;12.02;67.74;102819.81;4997309;28;45307;-73
2021/12/15 01:53:05;;;;;;;;;40.75;35.25;;;;;12.01;67.58;102824.22;4996456;28;46748;-73
2021/12/15 01:55:30;;;;;;;;;40.00;34.25;;;;;12.03;67.46;102833.09;4996864;28;45428;-73
2021/12/15 01:57:56;;;;;;;;;39.50;34.00;;;;;12.03;67.46;102830.47;4997044;28;45349;-73
2021/12/15 02:00:52;;;;;;;;;42.75;36.50;;;;;12.02;67.65;102823.38;4996555;28;45254;-73
2021/12/15 02:03:17;;;;;;;;;34.25;30.75;;;;;12.03;67.73;102829.56;4987652;28;46723;-73
2021/12/15 02:05:43;;;;;;;;;37.50;33.75;;;;;12.03;67.64;102843.69;4975874;28;46477;-73
2021/12/15 02:08:08;;;;;;;;;35.50;28.00;;;;;12.03;67.81;102841.06;4990931;28;45483;-73
2021/12/15 02:10:36;;;;;;;;;38.25;34.75;;;;;12.02;67.66;102838.34;4996898;28;45671;-73
2021/12/15 02:13:04;;;;;;;;;35.25;29.50;;;;;12.01;67.49;102839.22;4996293;28;46854;-72
2021/12/15 02:15:32;;;;;;;;;37.75;31.00;;;;;11.98;67.66;102833.78;4979100;28;45454;-72
2021/12/15 02:17:59;;;;;;;;;37.25;31.25;;;;;11.90;67.44;102829.97;4995362;28;45326;-72
2021/12/15 02:20:37;;;;;;;;;42.00;33.25;;;;;11.90;67.31;102830.88;4996471;28;45219;-72
2021/12/15 02:23:04;;;;;;;;;36.25;28.25;;;;;11.95;67.55;102841.63;4986727;28;47679;-72
2021/12/15 02:25:29;;;;;;;;;37.25;31.00;;;;;12.02;67.51;102852.50;4996547;28;45350;-73
2021/12/15 02:27:54;;;;;;;;;36.50;29.25;;;;;11.98;67.75;102847.91;4998574;28;45237;-72
2021/12/15 02:33:12;;;;;;;;;38.25;30.00;;;;;12.02;67.58;102851.59;4999457;28;46447;-72
2021/12/15 02:38:27;;;;;;;;;33.50;30.25;;;;;12.02;67.81;102852.50;5000164;28;45179;-73
2021/12/15 02:40:53;;;;;;;;;37.25;31.00;;;;;11.92;67.59;102829.16;4999346;28;45274;-72
2021/12/15 02:43:18;;;;;;;;;41.00;33.00;;;;;11.98;67.56;102842.63;4999578;28;46896;-73
2021/12/15 02:45:44;;;;;;;;;39.25;34.25;;;;;11.92;67.55;102834.47;4998545;28;45366;-72
2021/12/15 02:48:09;;;;;;;;;39.25;30.00;;;;;12.00;67.78;102848.91;4998899;28;51791;-73
2021/12/15 02:50:36;;;;;;;;;32.50;25.25;;;;;11.99;67.95;102844.47;4999793;28;45478;-72
2021/12/15 02:53:02;;;;;;;;;36.00;31.25;;;;;11.95;67.73;102839.00;4999232;28;46775;-73
2021/12/15 02:55:27;;;;;;;;;31.25;25.75;;;;;12.00;67.82;102840.97;4999111;28;45391;-73
2021/12/15 02:57:53;;;;;;;;;39.25;30.50;;;;;12.02;67.91;102838.34;4999673;28;45436;-73
2021/12/15 03:00:25;;;;;;;;;41.00;33.00;;;;;11.96;67.77;102832.84;4993307;28;45374;-73
2021/12/15 03:03:58;;;;;;;;;27.25;19.25;;;;;12.01;67.95;102836.56;4992991;28;45653;-72
2021/12/15 03:05:47;;;;;;;;;35.75;30.75;;;;;12.01;67.90;102840.09;4989363;28;45363;-73
2021/12/15 03:16:08;;;;;;;;;31.50;25.50;;;;;11.99;67.92;102827.69;4999073;28;45311;-73
2021/12/15 03:18:34;;;;;;;;;33.25;28.00;;;;;12.01;67.77;102845.41;4999479;28;45297;-73
2021/12/15 03:21:08;;;;;;;;;42.00;32.25;;;;;11.99;67.91;102839.16;4999450;28;45479;-73
2021/12/15 03:23:50;;;;;;;;;36.25;33.00;;;;;11.93;67.85;102825.69;5000938;28;46009;-73
2021/12/15 03:26:19;;;;;;;;;34.25;27.75;;;;;11.91;67.78;102813.22;5000609;28;45457;-73
2021/12/15 03:39:28;;;;;;;;;41.75;32.25;;;;;11.88;67.79;102829.00;4998482;28;45754;-73
2021/12/15 03:42:01;;;;;;;;;32.00;26.50;;;;;11.93;67.94;102840.66;4999091;28;45346;-72
2021/12/15 03:44:28;;;;;;;;;30.75;25.25;;;;;12.00;67.12;102853.31;4980003;28;48260;-73
2021/12/15 03:46:53;;;;;;;;;34.25;26.25;;;;;11.99;67.45;102849.75;4977776;28;45440;-73
2021/12/15 03:49:19;;;;;;;;;23.75;22.00;;;;;11.93;67.53;102830.06;4997717;28;45701;-73
2021/12/15 03:51:44;;;;;;;;;33.00;27.25;;;;;12.00;67.66;102848.00;4965128;28;45621;-72
2021/12/15 03:54:10;;;;;;;;;35.75;26.00;;;;;12.01;67.49;102853.34;4997801;28;46636;-72
2021/12/15 03:56:39;;;;;;;;;31.50;26.25;;;;;12.01;67.77;102848.06;4961281;28;45956;-73
2021/12/15 03:59:06;;;;;;;;;32.50;25.75;;;;;11.97;67.61;102845.22;4975031;28;45350;-73
2021/12/15 04:01:32;;;;;;;;;30.50;25.00;;;;;11.99;67.78;102847.09;4974418;28;45587;-73
2021/12/15 04:03:57;;;;;;;;;36.75;29.75;;;;;12.03;67.50;102856.03;5013915;28;45565;-73
2021/12/15 04:06:26;;;;;;;;;27.50;27.00;;;;;12.01;67.60;102853.34;4980840;28;45311;-73
2021/12/15 04:08:51;;;;;;;;;27.50;26.25;;;;;12.02;67.49;102857.78;4998639;28;45389;-73
2021/12/15 04:11:27;;;;;;;;;26.00;22.75;;;;;12.01;67.64;102849.81;4998326;28;45210;-73
2021/12/15 04:13:58;;;;;;;;;28.00;23.75;;;;;12.04;67.18;102852.56;4998218;28;47650;-72
2021/12/15 04:18:56;;;;;;;;;33.25;22.50;;;;;12.02;67.43;102843.66;4998323;28;45287;-72
2021/12/15 04:21:22;;;;;;;;;27.25;23.75;;;;;12.01;67.54;102848.06;4979981;28;45519;-72
2021/12/15 04:23:50;;;;;;;;;26.00;20.50;;;;;12.01;67.30;102844.50;4997984;28;46355;-72
2021/12/15 04:26:15;;;;;;;;;31.00;25.00;;;;;11.95;67.16;102829.28;4998154;28;45362;-72
2021/12/15 04:28:40;;;;;;;;;26.00;22.50;;;;;12.02;67.21;102839.25;4993516;28;45512;-73
2021/12/15 04:31:08;;;;;;;;;28.25;20.00;;;;;11.98;67.04;102823.19;4971558;28;45410;-72
2021/12/15 04:33:46;;;;;;;;;31.00;22.50;;;;;12.07;67.05;102839.44;4962254;28;47512;-73
2021/12/15 04:36:12;;;;;;;;;29.00;22.75;;;;;11.99;67.15;102827.69;4998034;28;45310;-73
2021/12/15 04:38:38;;;;;;;;;25.00;21.67;;;;;12.05;67.13;102843.78;4996122;28;45447;-72
2021/12/15 04:41:05;;;;;;;;;33.50;27.00;;;;;12.05;67.18;102843.78;4997341;28;45257;-73
2021/12/15 04:43:34;;;;;;;;;29.50;21.50;;;;;11.97;67.09;102835.53;4997784;28;47472;-72
2021/12/15 04:46:00;;;;;;;;;24.00;17.25;;;;;12.00;67.29;102846.25;4993038;28;45369;-73
2021/12/15 04:48:25;;;;;;;;;29.50;23.50;;;;;11.97;67.27;102840.81;4978293;28;45424;-73
2021/12/15 04:50:51;;;;;;;;;24.25;16.00;;;;;12.04;67.21;102849.94;4996269;28;50360;-73
2021/12/15 04:53:16;;;;;;;;;30.75;24.50;;;;;11.83;67.30;102820.91;4997552;28;46354;-73
2021/12/15 04:55:42;;;;;;;;;24.00;22.50;;;;;12.03;67.24;102856.03;4997284;28;45409;-73
2021/12/15 04:58:09;;;;;;;;;23.75;20.25;;;;;11.92;66.85;102833.56;4993212;28;45411;-73
2021/12/15 05:00:38;;;;;;;;;26.25;19.25;;;;;11.98;67.28;102852.31;4961734;28;45772;-73
2021/12/15 05:03:04;;;;;;;;;27.00;21.75;;;;;12.03;67.29;102853.41;4997998;28;45748;-73
2021/12/15 05:05:32;;;;;;;;;22.00;18.25;;;;;12.00;67.44;102854.19;4997697;28;45510;-73
2021/12/15 05:07:58;;;;;;;;;33.75;22.75;;;;;11.94;67.12;102853.06;4992776;28;45451;-72
2021/12/15 05:10:24;;;;;;;;;32.50;25.50;;;;;12.00;67.37;102864.78;4994771;28;45542;-72
2021/12/15 05:12:49;;;;;;;;;29.75;24.00;;;;;12.00;67.33;102870.09;4947031;28;47555;-73
2021/12/15 05:15:15;;;;;;;;;32.00;23.50;;;;;11.99;67.54;102865.63;4997128;28;45503;-72
2021/12/15 05:17:40;;;;;;;;;31.50;25.50;;;;;12.01;67.30;102871.88;5012783;28;45452;-72
2021/12/15 05:20:08;;;;;;;;;31.75;19.25;;;;;11.95;67.67;102862.81;4996644;28;52336;-72
2021/12/15 05:22:34;;;;;;;;;22.50;16.00;;;;;11.98;67.51;102869.09;4980119;28;46554;-72
2021/12/15 05:24:59;;;;;;;;;31.25;26.25;;;;;12.01;67.38;102876.28;5012602;28;45294;-72
2021/12/15 05:27:25;;;;;;;;;35.50;29.50;;;;;11.93;67.40;102867.13;4997601;28;45528;-72
2021/12/15 05:29:50;;;;;;;;;33.50;25.00;;;;;12.01;67.36;102881.56;4995135;28;45302;-73
2021/12/15 05:32:18;;;;;;;;;28.75;28.75;;;;;11.98;67.62;102879.69;4978891;28;46605;-73
2021/12/15 05:34:44;;;;;;;;;34.25;26.50;;;;;12.02;67.51;102891.31;4997041;28;45500;-72
2021/12/15 05:37:10;;;;;;;;;31.50;26.25;;;;;11.93;67.95;102869.78;4997115;28;45305;-72
2021/12/15 05:39:36;;;;;;;;;33.25;29.25;;;;;12.02;67.55;102894.84;4996987;28;45230;-72
2021/12/15 05:42:02;;;;;;;;;36.50;26.00;;;;;12.01;67.54;102890.41;4996450;28;46608;-73
2021/12/15 05:44:27;;;;;;;;;39.25;29.75;;;;;11.91;67.56;102869.72;4992263;28;45555;-72
2021/12/15 05:46:54;;;;;;;;;32.00;28.50;;;;;11.95;67.42;102884.00;4991139;28;45574;-73
2021/12/15 05:49:19;;;;;;;;;28.00;27.75;;;;;11.94;67.52;102879.53;4992844;28;45522;-72
2021/12/15 05:51:45;;;;;;;;;31.25;25.75;;;;;11.96;67.84;102888.44;4992779;28;50891;-73
2021/12/15 05:54:10;;;;;;;;;32.25;29.50;;;;;12.03;67.59;102903.69;4996495;28;45373;-73
2021/12/15 05:56:36;;;;;;;;;37.00;27.50;;;;;11.92;67.68;102882.13;4997090;28;45279;-72
2021/12/15 05:59:02;;;;;;;;;30.75;29.50;;;;;12.05;67.64;102896.75;4997099;28;45460;-73
2021/12/15 06:01:28;;;;;;;;;28.25;25.75;;;;;12.05;67.72;102900.28;4998014;28;47437;-73
2021/12/15 06:03:53;;;;;;;;;28.50;25.25;;;;;11.94;67.64;102885.75;5000435;28;45317;-72
2021/12/15 06:06:19;;;;;;;;;31.25;28.75;;;;;12.04;67.77;102906.44;5000241;28;45270;-73
2021/12/15 06:08:44;;;;;;;;;26.50;24.25;;;;;12.04;67.55;102903.78;5000326;28;45643;-72
2021/12/15 06:11:10;;;;;;;;;26.25;23.75;;;;;12.03;67.73;102901.94;4982286;28;53009;-73
2021/12/15 06:13:35;;;;;;;;;28.25;24.50;;;;;12.01;67.58;102914.25;4999890;28;45261;-73
2021/12/15 06:16:00;;;;;;;;;31.75;24.00;;;;;12.03;67.84;102916.94;4998080;28;45235;-73
2021/12/15 06:18:26;;;;;;;;;31.25;23.25;;;;;12.03;67.74;102919.59;4999417;28;45421;-72
2021/12/15 06:20:52;;;;;;;;;36.25;27.25;;;;;12.02;67.84;102923.09;4999116;28;46699;-72
2021/12/15 06:23:20;;;;;;;;;37.75;29.00;;;;;11.95;67.85;102911.38;4999341;28;45400;-72
2021/12/15 06:25:48;;;;;;;;;33.25;26.25;;;;;12.02;67.74;102926.63;4977394;28;45342;-72
2021/12/15 06:28:14;;;;;;;;;35.50;24.00;;;;;12.02;67.77;102928.38;4986715;28;45496;-72
2021/12/15 06:30:40;;;;;;;;;36.75;29.25;;;;;12.03;67.84;102928.44;4999228;28;46701;-72
2021/12/15 06:33:05;;;;;;;;;25.50;20.00;;;;;11.92;67.52;102920.91;4998387;28;46112;-74
2021/12/15 06:35:31;;;;;;;;;34.75;24.50;;;;;11.83;67.84;102923.22;4999229;28;45433;-75
2021/12/15 06:37:57;;;;;;;;;35.00;26.25;;;;;11.76;68.05;102935.25;4998338;28;45444;-74
2021/12/15 06:40:22;;;;;;;;;25.50;18.25;;;;;11.64;68.41;102935.69;5139151;22;46135;-71
2021/12/15 06:42:48;;;;;;;;;32.00;27.00;;;;;11.50;68.78;102934.22;5038610;28;45491;-72
2021/12/15 06:45:18;;;;;;;;;38.25;29.25;;;;;11.45;68.74;102944.63;5024502;28;45351;-71
2021/12/15 06:58:56;;;;;;;;;45.00;33.25;;;;;11.43;68.95;102948.03;5030236;28;45447;-72
2021/12/15 07:01:21;;;;;;;;;44.50;31.50;;;;;11.52;69.08;102953.72;5036012;28;52589;-71
2021/12/15 07:03:47;;;;;;;;;38.50;33.75;;;;;11.55;69.06;102946.78;5037962;28;54012;-70
2021/12/15 07:06:12;;;;;;;;;51.75;36.25;;;;;11.63;69.06;102960.34;5001329;28;45358;-71
2021/12/15 07:08:37;;;;;;;;;41.75;36.75;;;;;11.66;68.95;102946.31;5032350;28;45131;-70
2021/12/15 07:11:04;;;;;;;;;35.00;32.00;;;;;11.71;68.88;102963.28;5038887;28;45641;-71
2021/12/15 07:13:30;;;;;;;;;38.00;32.25;;;;;11.74;68.87;102963.41;5037061;28;45290;-70
2021/12/15 07:16:00;;;;;;;;;42.50;34.25;;;;;11.67;68.77;102938.47;5035930;28;45320;-72
2021/12/15 07:18:37;;;;;;;;;41.00;34.50;;;;;11.70;68.83;102950.91;5032842;28;45563;-72
2021/12/15 07:21:07;;;;;;;;;49.00;34.00;;;;;11.73;68.61;102953.69;5030315;28;46528;-71
2021/12/15 07:23:33;;;;;;;;;39.25;34.75;;;;;11.83;68.85;102969.13;5032544;28;45599;-71
2021/12/15 07:25:58;;;;;;;;;34.75;29.25;;;;;11.81;68.66;102968.09;5019752;28;45451;-72
2021/12/15 07:28:24;;;;;;;;;36.25;30.25;;;;;11.87;68.84;102978.06;5014364;28;48581;-75
2021/12/15 07:30:50;;;;;;;;;37.00;30.00;;;;;11.88;68.66;102983.44;5032445;28;46404;-73
2021/12/15 07:33:15;;;;;;;;;32.50;26.50;;;;;11.89;68.74;102982.59;5026851;28;45454;-72
2021/12/15 07:35:41;;;;;;;;;31.00;26.25;;;;;11.83;68.76;102965.59;5029004;28;52136;-73
2021/12/15 07:38:06;;;;;;;;;31.00;24.50;;;;;11.91;68.56;102980.91;5031074;28;45308;-74
2021/12/15 07:40:32;;;;;;;;;27.00;19.25;;;;;11.94;68.63;102986.34;5031819;28;46536;-73
2021/12/15 07:43:08;;;;;;;;;30.50;26.50;;;;;11.79;68.47;102964.50;5013666;28;45911;-73
2021/12/15 07:45:44;;;;;;;;;24.75;20.00;;;;;11.97;68.44;102994.38;5026951;28;45510;-73
2021/12/15 07:48:11;;;;;;;;;18.25;16.75;;;;;11.98;68.46;103000.59;5030375;28;45515;-72
2021/12/15 07:50:37;;;;;;;;;22.00;17.67;;;;;11.95;68.38;102997.84;5035910;28;46743;-72
2021/12/15 07:53:03;;;;;;;;;17.67;13.00;;;;;11.99;68.17;103005.06;5002470;28;45345;-73
2021/12/15 07:55:28;;;;;;;;;17.00;12.00;;;;;11.96;68.24;103003.19;5022658;28;45464;-72
2021/12/15 07:57:54;;;;;;;;;12.00;11.00;;;;;11.98;68.44;103004.13;5006974;28;45596;-72
2021/12/15 08:00:20;;;;;;;;;9.67;9.67;;;;;11.88;68.36;102972.88;5030180;28;45993;-72
2021/12/15 08:02:46;;;;;;;;;13.33;11.00;;;;;12.03;68.27;103007.88;5018339;28;45633;-72
2021/12/15 08:05:11;;;;;;;;;17.67;13.00;;;;;12.03;68.25;103002.56;5025705;28;45377;-72
2021/12/15 08:07:37;;;;;;;;;13.67;12.00;;;;;11.96;68.01;102989.03;5018537;28;45350;-72
2021/12/15 08:10:06;;;;;;;;;12.00;10.00;;;;;12.03;68.09;102999.91;5029795;28;51925;-72
2021/12/15 08:12:31;;;;;;;;;8.33;5.00;;;;;12.06;67.94;103004.44;5034141;28;45612;-72
2021/12/15 08:14:57;;;;;;;;;19.67;13.00;;;;;11.84;67.94;102967.38;5023685;28;49815;-73
2021/12/15 08:17:22;;;;;;;;;14.67;12.00;;;;;12.09;67.80;103009.88;4997962;28;46768;-72
2021/12/15 08:19:47;;;;;;;;;17.33;15.67;;;;;12.13;67.60;103006.50;5031482;28;45825;-72
2021/12/15 08:22:13;;;;;;;;;18.33;16.67;;;;;12.13;67.81;103008.25;5035562;28;45470;-72
2021/12/15 08:24:38;;;;;;;;;17.00;12.00;;;;;12.13;67.80;103011.78;5035540;28;52407;-72
2021/12/15 08:27:04;;;;;;;;;13.00;11.33;;;;;12.18;67.59;103012.88;5009640;28;45378;-72
2021/12/15 08:29:29;;;;;;;;;17.33;15.33;;;;;12.10;67.57;102993.16;5015946;28;46896;-72
2021/12/15 08:31:55;;;;;;;;;20.33;15.67;;;;;12.19;67.56;103012.03;5027937;28;45462;-72
2021/12/15 08:34:20;;;;;;;;;17.33;15.00;;;;;12.22;67.77;103020.09;5030784;28;45709;-72
2021/12/15 08:36:46;;;;;;;;;21.75;18.75;;;;;12.16;67.43;103003.97;5031888;28;45315;-72
2021/12/15 08:39:12;;;;;;;;;24.33;20.33;;;;;12.16;67.60;102998.69;5030436;28;46633;-76
2021/12/15 08:41:37;;;;;;;;;17.00;15.33;;;;;12.25;67.48;103014.94;5033912;28;45742;-75
2021/12/15 08:44:06;;;;;;;;;22.00;12.67;;;;;12.24;67.01;103017.50;5013453;28;45504;-76
2021/12/15 08:46:38;;;;;;;;;20.33;19.67;;;;;12.15;66.90;103001.28;5013319;28;45531;-74
2021/12/15 08:49:04;;;;;;;;;18.00;13.67;;;;;12.15;67.58;103002.19;5008567;28;47341;-79
2021/12/15 08:51:29;;;;;;;;;16.33;13.33;;;;;12.25;67.48;103017.59;5001996;28;45604;-76
2021/12/15 08:53:56;;;;;;;;;16.67;14.67;;;;;12.27;67.52;103017.63;5021643;28;49254;-76
2021/12/15 08:56:21;;;;;;;;;16.33;13.00;;;;;12.27;67.39;103010.59;5008964;28;45476;-76
2021/12/15 08:58:47;;;;;;;;;18.00;12.00;;;;;12.26;67.46;103013.19;5018594;28;51376;-75
2021/12/15 09:01:12;;;;;;;;;20.33;16.00;;;;;12.28;67.43;103019.44;4995378;28;45503;-76
2021/12/15 09:03:41;;;;;;;;;14.33;10.00;;;;;12.32;67.32;103029.31;5012798;28;45932;-77
2021/12/15 09:06:07;;;;;;;;;16.33;10.67;;;;;12.27;67.56;103012.34;4992451;28;45563;-78
2021/12/15 09:08:32;;;;;;;;;16.67;11.33;;;;;12.30;67.34;103016.03;4979477;28;48546;-77
2021/12/15 09:11:00;;;;;;;;;17.00;15.00;;;;;12.28;67.21;103003.53;5006850;28;45428;-77
2021/12/15 09:13:30;;;;;;;;;18.67;15.33;;;;;12.36;67.09;103028.59;4982062;28;45508;-75
2021/12/15 09:15:55;;;;;;;;;18.33;12.00;;;;;12.35;67.20;103024.13;4985861;28;45711;-79
2021/12/15 09:18:21;;;;;;;;;18.00;17.00;;;;;12.40;67.03;103027.84;4995422;28;47728;-77
2021/12/15 09:20:46;;;;;;;;;15.00;12.00;;;;;12.45;66.89;103034.22;5031648;28;60021;-79
2021/12/15 09:23:14;;;;;;;;;22.33;14.33;;;;;12.37;66.61;103006.56;4994770;28;45604;-77
2021/12/15 09:25:39;;;;;;;;;19.00;16.33;;;;;12.44;66.58;103026.25;4991866;28;45286;-78
2021/12/15 09:28:05;;;;;;;;;20.00;17.00;;;;;12.49;66.71;103022.00;5006312;28;46000;-75
2021/12/15 09:30:31;;;;;;;;;12.33;12.33;;;;;12.53;66.79;103021.28;4979344;28;45899;-77
2021/12/15 09:32:57;;;;;;;;;21.67;16.33;;;;;12.62;66.26;103028.66;5016896;28;45530;-76
2021/12/15 09:35:23;;;;;;;;;21.00;18.50;;;;;12.57;66.61;103020.56;5026559;28;45440;-76
2021/12/15 09:37:48;;;;;;;;;18.00;14.33;;;;;12.66;66.54;103033.25;5000771;28;46582;-76
2021/12/15 09:40:15;;;;;;;;;25.00;17.00;;;;;12.71;66.35;103032.56;5012227;28;45340;-76
2021/12/15 09:42:40;;;;;;;;;16.00;14.33;;;;;12.73;66.54;103035.28;5019990;28;45506;-77
2021/12/15 09:46:05;;;;;;;;;13.33;13.33;;;;;12.70;66.36;103030.78;4999644;28;45503;-76
2021/12/15 10:04:25;;;;;;;;;14.33;12.33;;;;;12.72;66.62;103033.47;5003213;28;45487;-77
2021/12/15 10:17:49;;;;;;;;;17.67;14.67;;;;;12.79;66.59;103044.38;5006538;28;45551;-78
2021/12/15 10:20:18;;;;;;;;;23.67;16.33;;;;;12.80;66.28;103039.97;5012420;28;46307;-76
2021/12/15 10:22:46;;;;;;;;;17.00;13.00;;;;;12.78;66.31;103036.34;4994962;28;46408;-79
2021/12/15 10:25:13;;;;;;;;;15.67;14.00;;;;;12.73;66.16;103020.31;4998338;28;46894;-77
2021/12/15 10:27:52;;;;;;;;;17.00;16.33;;;;;12.81;66.35;103040.03;5014565;28;45523;-80
2021/12/15 10:30:19;;;;;;;;;19.00;17.67;;;;;12.84;66.21;103047.22;4994184;28;45487;-76
2021/12/15 10:32:45;;;;;;;;;21.67;14.33;;;;;12.82;65.64;103043.56;5019194;28;45532;-76
2021/12/15 10:35:19;;;;;;;;;13.00;10.00;;;;;12.81;65.90;103033.81;4996548;28;45383;-76
2021/12/15 10:38:07;;;;;;;;;15.67;14.00;;;;;12.84;66.04;103041.91;5024756;28;45380;-76
2021/12/15 10:40:32;;;;;;;;;17.33;14.33;;;;;12.84;65.75;103047.22;5027919;28;46565;-78
2021/12/15 10:43:02;;;;;;;;;18.33;16.00;;;;;12.83;66.07;103038.31;4993481;28;45671;-76
2021/12/15 10:45:34;;;;;;;;;16.33;12.67;;;;;12.83;65.89;103029.47;4995267;28;45612;-78
2021/12/15 10:48:01;;;;;;;;;14.33;13.00;;;;;12.90;65.57;103044.78;5007020;28;45569;-76
2021/12/15 10:50:26;;;;;;;;;13.67;13.67;;;;;12.90;65.39;103042.13;5033249;28;46372;-76
2021/12/15 10:52:57;;;;;;;;;13.00;12.00;;;;;12.80;65.19;103014.38;5012879;28;45579;-79
2021/12/15 10:55:35;;;;;;;;;14.33;12.67;;;;;12.67;65.54;103003.25;4997518;28;45590;-78
2021/12/15 10:58:00;;;;;;;;;16.00;14.33;;;;;12.80;65.27;103021.44;5018619;28;45412;-78
2021/12/15 11:00:26;;;;;;;;;18.33;13.67;;;;;12.86;65.79;103032.25;4999855;28;46240;-77
2021/12/15 11:03:04;;;;;;;;;16.33;13.00;;;;;12.78;65.62;103018.72;5008845;28;45429;-79
2021/12/15 11:05:29;;;;;;;;;18.67;16.67;;;;;12.83;65.75;103019.75;4994151;28;45565;-79
2021/12/15 11:07:57;;;;;;;;;12.67;10.67;;;;;12.88;65.93;103035.84;5019770;28;45254;-77
2021/12/15 11:10:31;;;;;;;;;12.00;10.00;;;;;12.74;65.45;103010.59;4976822;28;45601;-77
2021/12/15 11:13:07;;;;;;;;;11.00;10.00;;;;;12.92;65.47;103029.81;5014793;28;45530;-79
2021/12/15 11:15:43;;;;;;;;;11.00;11.00;;;;;12.90;65.46;103031.53;5007103;28;45220;-80
2021/12/15 11:18:16;;;;;;;;;14.00;12.00;;;;;12.85;65.69;103022.50;4998225;28;45602;-78
2021/12/15 11:20:49;;;;;;;;;16.67;13.67;;;;;12.91;65.77;103029.78;5001492;28;45530;-77
2021/12/15 11:23:19;;;;;;;;;15.33;13.00;;;;;12.91;65.45;103033.31;5011839;28;47119;-77
2021/12/15 11:25:53;;;;;;;;;15.33;11.33;;;;;12.93;65.67;103025.41;5017250;28;45457;-78
2021/12/15 11:28:25;;;;;;;;;17.67;11.67;;;;;12.93;65.89;103028.97;5027518;28;45306;-77
2021/12/15 11:30:58;;;;;;;;;12.67;12.67;;;;;12.80;65.73;103000.22;5015867;28;47575;-79
2021/12/15 11:33:28;;;;;;;;;14.67;14.67;;;;;12.92;65.65;103028.91;5032488;28;45538;-79
2021/12/15 11:36:16;;;;;;;;;17.67;14.33;;;;;12.85;65.60;103004.84;5000904;28;45439;-77
2021/12/15 11:38:51;;;;;;;;;16.00;14.67;;;;;12.91;65.87;103008.56;5018163;28;45600;-77
2021/12/15 11:41:21;;;;;;;;;12.00;11.33;;;;;12.93;65.64;103018.34;4989839;28;46210;-79
2021/12/15 11:44:00;;;;;;;;;18.33;16.33;;;;;12.84;65.31;103000.38;5031500;28;45468;-79
2021/12/15 11:46:29;;;;;;;;;14.67;12.67;;;;;12.98;65.36;103019.44;5002161;28;45653;-81
2021/12/15 11:49:03;;;;;;;;;11.00;11.00;;;;;13.00;65.38;103019.50;5035705;28;45597;-78
2021/12/15 11:51:46;;;;;;;;;13.00;13.00;;;;;13.00;65.63;103006.25;5021437;28;48747;-78
2021/12/15 11:54:28;;;;;;;;;12.00;9.33;;;;;12.99;65.49;103010.63;5016432;28;45508;-81
2021/12/15 11:56:58;;;;;;;;;15.67;10.00;;;;;13.00;65.14;103001.84;5003223;28;45358;-79
2021/12/15 11:59:34;;;;;;;;;13.33;12.33;;;;;13.02;65.00;103001.88;5012169;28;45502;-77
2021/12/15 12:02:01;;;;;;;;;11.67;9.67;;;;;13.02;65.42;102997.47;5017629;28;48672;-81
2021/12/15 12:04:43;;;;;;;;;14.00;9.00;;;;;13.05;65.35;103008.22;5033160;28;45486;-77
2021/12/15 12:07:27;;;;;;;;;58.25;34.75;;;;;13.00;64.36;103012.44;5025967;28;45245;-78
2021/12/15 12:10:01;;;;;;;;;9.00;7.00;;;;;12.91;64.83;103004.16;5008086;28;45384;-79
2021/12/15 12:12:33;;;;;;;;;6.00;5.33;;;;;12.86;64.84;102992.47;5015214;28;45806;-79
2021/12/15 12:14:59;;;;;;;;;4.00;4.00;;;;;12.88;64.73;102989.88;5003701;28;45294;-77
2021/12/15 12:17:33;;;;;;;;;7.00;6.00;;;;;12.89;65.15;102996.97;5011008;28;45310;-78
2021/12/15 12:20:03;;;;;;;;;13.67;8.67;;;;;12.94;64.93;103001.59;5003983;28;45314;-77
2021/12/15 12:22:30;;;;;;;;;6.67;6.67;;;;;12.81;65.08;102971.09;4998162;28;48033;-78
2021/12/15 12:24:57;;;;;;;;;7.33;7.33;;;;;12.94;65.10;102988.34;5013143;28;45358;-79
2021/12/15 12:27:24;;;;;;;;;9.00;9.00;;;;;12.90;64.83;102982.91;4973751;28;45432;-79
2021/12/15 12:29:51;;;;;;;;;9.33;7.67;;;;;12.98;65.19;102992.91;5023261;28;45585;-77